Time;durP1;ratioP1;P1;durP2;ratioP2;P2;SDS_P1;SDS_P2;PMS_P1;PMS_P2;Temp;Humidity;BMP_temperature;BMP_pressure;BME280_temperature;BME280_humidity;BME280_pressure;Samples;Min_cycle;Max_cycle;Signal;HPM_P1;HPM_P2
2022/01/09 00:00:31;;;;;;;13.17;5.47;;;1.20;99.90;;;;;;4995025;28;20116;-67
2022/01/09 00:02:58;;;;;;;11.90;4.80;;;1.20;99.90;;;;;;4995006;28;20104;-68
2022/01/09 00:05:25;;;;;;;12.90;5.03;;;1.20;99.90;;;;;;4994918;28;20133;-66
2022/01/09 00:07:53;;;;;;;10.17;5.00;;;1.20;99.90;;;;;;4994840;28;20494;-69
2022/01/09 00:10:20;;;;;;;10.13;4.73;;;1.30;99.90;;;;;;4994997;28;20059;-66
2022/01/09 00:12:47;;;;;;;16.40;5.73;;;1.20;99.90;;;;;;4994731;28;20137;-66
2022/01/09 00:15:14;;;;;;;8.67;4.20;;;1.30;99.90;;;;;;4994562;28;20046;-66
2022/01/09 00:17:43;;;;;;;14.27;5.97;;;1.30;99.90;;;;;;4994469;28;20417;-66
2022/01/09 00:20:11;;;;;;;11.60;4.60;;;1.30;99.90;;;;;;4995065;28;20141;-66
2022/01/09 00:22:44;;;;;;;8.87;4.87;;;1.30;99.90;;;;;;4994373;28;20129;-67
2022/01/09 00:25:12;;;;;;;10.87;5.30;;;1.30;99.90;;;;;;4994442;28;20058;-66
2022/01/09 00:27:39;;;;;;;10.67;5.53;;;1.30;99.90;;;;;;4994393;28;20060;-67
2022/01/09 00:30:07;;;;;;;10.90;5.73;;;1.30;99.90;;;;;;4994148;28;20078;-68
2022/01/09 00:32:34;;;;;;;11.63;5.27;;;1.30;99.90;;;;;;4994296;28;20050;-66
2022/01/09 00:35:04;;;;;;;12.30;5.67;;;1.30;99.90;;;;;;4994225;28;20534;-65
2022/01/09 00:37:31;;;;;;;12.93;5.40;;;1.30;99.90;;;;;;4994463;28;20051;-64
2022/01/09 00:39:58;;;;;;;10.10;5.80;;;1.30;99.90;;;;;;4994214;28;20519;-64
2022/01/09 00:42:25;;;;;;;12.57;6.00;;;1.40;99.90;;;;;;4993937;28;20061;-65
2022/01/09 00:44:51;;;;;;;11.27;5.60;;;1.30;99.90;;;;;;4993629;28;20089;-65
2022/01/09 00:47:18;;;;;;;13.97;5.77;;;1.40;99.90;;;;;;4994092;28;20137;-65
2022/01/09 00:49:45;;;;;;;13.67;6.60;;;1.30;99.90;;;;;;4994138;28;20145;-65
2022/01/09 00:52:14;;;;;;;11.10;5.77;;;1.30;99.90;;;;;;4994234;28;20447;-68
2022/01/09 00:54:41;;;;;;;11.00;5.80;;;1.30;99.90;;;;;;4994255;28;20050;-65
2022/01/09 00:57:08;;;;;;;12.43;5.90;;;1.30;99.90;;;;;;4993770;28;20477;-65
2022/01/09 00:59:35;;;;;;;12.63;6.07;;;1.30;99.90;;;;;;4993862;28;20053;-65
2022/01/09 01:02:02;;;;;;;11.50;5.93;;;1.30;99.90;;;;;;4992536;28;20479;-65
2022/01/09 01:04:29;;;;;;;11.07;6.03;;;1.30;99.90;;;;;;4993749;28;20161;-64
2022/01/09 01:06:56;;;;;;;12.83;6.43;;;1.30;99.90;;;;;;4993566;28;20570;-65
2022/01/09 01:09:26;;;;;;;15.07;7.03;;;1.30;99.90;;;;;;4993546;28;20046;-63
2022/01/09 01:11:53;;;;;;;11.47;5.73;;;1.30;99.90;;;;;;4993741;28;20088;-65
2022/01/09 01:14:22;;;;;;;10.80;5.07;;;1.30;99.90;;;;;;4993415;28;20573;-65
2022/01/09 01:16:49;;;;;;;12.93;6.40;;;1.30;99.90;;;;;;4993282;28;20050;-65
2022/01/09 01:19:16;;;;;;;15.50;7.00;;;1.40;99.90;;;;;;4993593;28;20073;-67
2022/01/09 01:21:43;;;;;;;14.83;5.93;;;1.30;99.90;;;;;;4993405;28;20105;-67
2022/01/09 01:24:10;;;;;;;10.67;5.43;;;1.30;99.90;;;;;;4993694;28;20110;-65
2022/01/09 01:26:39;;;;;;;12.67;4.97;;;1.40;99.90;;;;;;4993168;28;20112;-67
2022/01/09 01:29:06;;;;;;;15.23;7.07;;;1.30;99.90;;;;;;4993757;28;20046;-67
2022/01/09 01:31:33;;;;;;;15.90;6.77;;;1.20;99.90;;;;;;4993043;28;20610;-66
2022/01/09 01:33:59;;;;;;;13.53;6.27;;;1.20;99.90;;;;;;4993189;28;20514;-67
2022/01/09 01:36:26;;;;;;;12.43;6.70;;;1.20;99.90;;;;;;4992922;28;20054;-65
2022/01/09 01:38:53;;;;;;;14.27;5.67;;;1.10;99.90;;;;;;4993252;28;20149;-65
2022/01/09 01:41:20;;;;;;;16.53;7.10;;;1.10;99.90;;;;;;4992886;28;20138;-66
2022/01/09 01:43:49;;;;;;;11.00;5.97;;;1.10;99.90;;;;;;4993007;28;20061;-65
2022/01/09 01:46:15;;;;;;;18.17;7.37;;;1.10;99.90;;;;;;4992677;28;20138;-65
2022/01/09 01:48:42;;;;;;;13.47;6.60;;;1.10;99.90;;;;;;4992995;28;20522;-65
2022/01/09 01:51:09;;;;;;;12.93;6.20;;;1.10;99.90;;;;;;4992800;28;20082;-65
2022/01/09 01:53:38;;;;;;;12.40;6.07;;;1.10;99.90;;;;;;4993215;28;20096;-63
2022/01/09 01:56:06;;;;;;;11.17;5.97;;;1.20;99.90;;;;;;4992993;28;20391;-65
2022/01/09 01:58:34;;;;;;;11.50;5.77;;;1.20;99.90;;;;;;4992357;28;20050;-65
2022/01/09 02:01:03;;;;;;;11.23;5.37;;;1.20;99.90;;;;;;4993056;28;20054;-65
2022/01/09 02:03:30;;;;;;;10.10;5.50;;;1.30;99.90;;;;;;4992722;28;20081;-65
2022/01/09 02:05:58;;;;;;;8.97;5.07;;;1.20;99.90;;;;;;4992446;28;20133;-66
2022/01/09 02:08:25;;;;;;;9.70;5.37;;;1.20;99.90;;;;;;4992623;28;20374;-66
2022/01/09 02:10:52;;;;;;;9.13;4.93;;;1.20;99.90;;;;;;4992604;28;20046;-66
2022/01/09 02:13:20;;;;;;;9.63;5.43;;;1.30;99.90;;;;;;4992036;28;20141;-65
2022/01/09 02:15:48;;;;;;;9.17;4.90;;;1.30;99.90;;;;;;4992403;28;20050;-65
2022/01/09 02:18:18;;;;;;;10.63;4.63;;;1.40;99.90;;;;;;4992451;28;20046;-66
2022/01/09 02:20:47;;;;;;;9.70;4.60;;;1.40;99.90;;;;;;4991446;28;20499;-66
2022/01/09 02:23:15;;;;;;;8.83;4.10;;;1.40;99.90;;;;;;4991205;28;20100;-66
2022/01/09 02:25:51;;;;;;;10.80;3.63;;;1.40;99.90;;;;;;4991177;28;20148;-65
2022/01/09 02:28:26;;;;;;;9.17;3.93;;;1.40;99.90;;;;;;4990741;28;20573;-66
2022/01/09 02:30:53;;;;;;;8.17;4.20;;;1.40;99.90;;;;;;4992506;28;20054;-67
2022/01/09 02:33:20;;;;;;;8.20;4.10;;;1.40;99.90;;;;;;4992233;28;20484;-67
2022/01/09 02:35:52;;;;;;;8.10;4.00;;;1.40;99.90;;;;;;4992970;28;20144;-67
2022/01/09 02:38:20;;;;;;;7.17;3.47;;;1.30;99.90;;;;;;4992082;28;20046;-67
2022/01/09 02:40:50;;;;;;;7.33;3.57;;;1.20;99.90;;;;;;4992125;28;20057;-67
2022/01/09 02:43:17;;;;;;;7.57;3.67;;;1.20;99.90;;;;;;4992169;28;20137;-68
2022/01/09 02:45:48;;;;;;;11.50;4.43;;;1.10;99.90;;;;;;4991934;28;20078;-68
2022/01/09 02:48:15;;;;;;;9.30;4.40;;;1.10;99.90;;;;;;4992044;28;20050;-70
2022/01/09 02:50:53;;;;;;;11.07;4.23;;;1.00;99.90;;;;;;4991912;28;20462;-68
2022/01/09 02:53:21;;;;;;;9.13;3.33;;;1.00;99.90;;;;;;4992269;28;20062;-68
2022/01/09 02:55:49;;;;;;;7.97;3.67;;;1.00;99.90;;;;;;4991901;28;20128;-68
2022/01/09 02:58:16;;;;;;;7.40;3.43;;;1.00;99.90;;;;;;4991809;28;20050;-68
2022/01/09 03:00:45;;;;;;;9.80;3.87;;;1.10;99.90;;;;;;4991937;28;20130;-69
2022/01/09 03:03:13;;;;;;;7.17;3.77;;;1.10;99.90;;;;;;4991620;28;20503;-69
2022/01/09 03:05:40;;;;;;;8.57;4.10;;;1.00;99.90;;;;;;4992114;28;20102;-69
2022/01/09 03:08:08;;;;;;;9.77;4.13;;;1.10;99.90;;;;;;4992061;28;20058;-70
2022/01/09 03:10:36;;;;;;;9.70;4.23;;;1.10;99.90;;;;;;4992197;28;20061;-70
2022/01/09 03:13:05;;;;;;;7.33;3.77;;;1.00;99.90;;;;;;4992005;28;20137;-69
2022/01/09 03:15:32;;;;;;;9.87;3.73;;;1.00;99.90;;;;;;4991775;28;20061;-69
2022/01/09 03:17:59;;;;;;;7.93;3.60;;;1.10;99.90;;;;;;4991726;28;20056;-70
2022/01/09 03:20:28;;;;;;;8.23;3.47;;;1.10;99.90;;;;;;4991753;28;20054;-69
2022/01/09 03:22:55;;;;;;;5.73;2.70;;;1.10;99.90;;;;;;4991772;28;20050;-69
2022/01/09 03:25:23;;;;;;;7.73;3.40;;;1.20;99.90;;;;;;4992180;28;20061;-69
2022/01/09 03:27:52;;;;;;;5.93;2.90;;;1.20;99.90;;;;;;4995689;28;20613;-70
2022/01/09 03:30:21;;;;;;;6.83;2.83;;;1.30;99.90;;;;;;4995519;28;20138;-70
2022/01/09 03:32:50;;;;;;;5.87;2.63;;;1.30;99.90;;;;;;4995443;28;20133;-70
2022/01/09 03:35:18;;;;;;;6.00;3.03;;;1.20;99.90;;;;;;4995363;28;20093;-70
2022/01/09 03:37:47;;;;;;;5.10;2.30;;;1.30;99.90;;;;;;4995478;28;20060;-70
2022/01/09 03:40:18;;;;;;;5.70;2.50;;;1.20;99.90;;;;;;4995257;28;20137;-70
2022/01/09 03:42:45;;;;;;;5.23;2.27;;;1.30;99.90;;;;;;5006947;23;20133;-71
2022/01/09 03:45:14;;;;;;;4.33;2.30;;;1.30;99.90;;;;;;4994830;28;20078;-71
2022/01/09 03:47:41;;;;;;;5.17;2.40;;;1.20;99.90;;;;;;4995142;28;20141;-71
2022/01/09 03:50:13;;;;;;;5.03;2.33;;;1.20;99.90;;;;;;4995061;28;20133;-71
2022/01/09 03:52:41;;;;;;;4.83;2.07;;;1.20;99.90;;;;;;4995365;28;20093;-71
2022/01/09 03:55:10;;;;;;;3.43;1.93;;;1.30;99.90;;;;;;4994987;28;20568;-71
2022/01/09 03:57:38;;;;;;;5.37;2.00;;;1.30;99.90;;;;;;4995127;28;20051;-71
2022/01/09 04:00:06;;;;;;;5.60;1.93;;;1.20;99.90;;;;;;4994997;28;20577;-71
2022/01/09 04:02:35;;;;;;;5.37;1.80;;;1.20;99.90;;;;;;4999757;28;20133;-71
2022/01/09 04:05:02;;;;;;;3.57;1.90;;;1.40;99.90;;;;;;5002879;28;20125;-71
2022/01/09 04:07:29;;;;;;;4.60;1.90;;;1.30;99.90;;;;;;4986923;28;20084;-71
2022/01/09 04:09:56;;;;;;;4.80;2.10;;;1.30;99.90;;;;;;4994710;28;20096;-71
2022/01/09 04:12:33;;;;;;;3.63;2.10;;;1.30;99.90;;;;;;4988571;28;20049;-71
2022/01/09 04:15:04;;;;;;;6.47;2.23;;;1.30;99.90;;;;;;4975303;28;20059;-71
2022/01/09 04:17:40;;;;;;;4.43;2.00;;;1.30;99.90;;;;;;4975138;28;20050;-71
2022/01/09 04:20:10;;;;;;;5.45;2.40;;;1.30;99.90;;;;;;4975480;28;20059;-71
2022/01/09 04:22:37;;;;;;;5.07;2.40;;;1.30;99.90;;;;;;4984100;28;20061;-71
2022/01/09 04:25:05;;;;;;;4.77;2.20;;;1.30;99.90;;;;;;4975060;28;20415;-71
2022/01/09 04:27:32;;;;;;;4.67;2.07;;;1.20;99.90;;;;;;4975022;28;20138;-71
2022/01/09 04:29:59;;;;;;;4.37;2.20;;;1.30;99.90;;;;;;4975273;28;20126;-71
2022/01/09 04:32:26;;;;;;;4.00;1.93;;;1.40;99.90;;;;;;4974941;28;20586;-71
2022/01/09 04:34:53;;;;;;;4.10;2.37;;;1.40;99.90;;;;;;4974805;28;20133;-71
2022/01/09 04:37:21;;;;;;;4.80;2.23;;;1.40;99.90;;;;;;4974584;28;20137;-71
2022/01/09 04:39:50;;;;;;;5.00;2.43;;;1.40;99.90;;;;;;4974800;28;20089;-71
2022/01/09 04:42:18;;;;;;;4.23;2.07;;;1.40;99.90;;;;;;4974706;28;20090;-71
2022/01/09 04:44:45;;;;;;;4.97;2.40;;;1.40;99.90;;;;;;4974962;28;20098;-71
2022/01/09 04:47:15;;;;;;;6.23;2.90;;;1.50;99.90;;;;;;4974935;28;20059;-71
2022/01/09 04:49:44;;;;;;;5.50;2.40;;;1.50;99.90;;;;;;4975050;28;20054;-71
2022/01/09 04:52:15;;;;;;;5.53;2.87;;;1.50;99.90;;;;;;4974392;28;20055;-71
2022/01/09 04:54:44;;;;;;;4.20;2.30;;;1.50;99.90;;;;;;4974514;28;20120;-71
2022/01/09 04:57:11;;;;;;;5.67;2.70;;;1.50;99.90;;;;;;4974695;28;20476;-71
2022/01/09 04:59:37;;;;;;;7.03;2.80;;;1.60;99.90;;;;;;4974832;28;20135;-71
2022/01/09 05:02:05;;;;;;;6.03;3.30;;;1.60;99.90;;;;;;4974176;28;20134;-71
2022/01/09 05:04:32;;;;;;;7.40;3.40;;;1.60;99.90;;;;;;4974388;28;20133;-71
2022/01/09 05:06:59;;;;;;;10.20;3.40;;;1.60;99.90;;;;;;4974016;28;20134;-71
2022/01/09 05:09:26;;;;;;;5.70;3.13;;;1.60;99.90;;;;;;4974126;28;20138;-71
2022/01/09 05:11:54;;;;;;;6.80;3.27;;;1.60;99.90;;;;;;4974105;28;20054;-71
2022/01/09 05:14:21;;;;;;;6.60;3.40;;;1.50;99.90;;;;;;4974384;28;20051;-71
2022/01/09 05:16:49;;;;;;;7.40;3.70;;;1.60;99.90;;;;;;4973884;28;20134;-71
2022/01/09 05:19:20;;;;;;;7.80;3.47;;;1.60;99.90;;;;;;4974457;28;20776;-71
2022/01/09 05:21:48;;;;;;;6.43;3.60;;;1.60;99.90;;;;;;4973824;28;20517;-71
2022/01/09 05:24:16;;;;;;;7.53;4.00;;;1.60;99.90;;;;;;4973871;28;20137;-71
2022/01/09 05:26:43;;;;;;;7.23;3.67;;;1.60;99.90;;;;;;4973705;28;20514;-71
2022/01/09 05:29:11;;;;;;;7.10;3.70;;;1.60;99.90;;;;;;4973920;28;20130;-71
2022/01/09 05:31:39;;;;;;;8.50;3.60;;;1.70;99.90;;;;;;4973807;28;20086;-71
2022/01/09 05:34:06;;;;;;;8.47;4.13;;;1.70;99.90;;;;;;4974160;28;20090;-71
2022/01/09 05:36:33;;;;;;;7.80;4.00;;;1.70;99.90;;;;;;4973234;28;20050;-71
2022/01/09 05:39:00;;;;;;;9.20;4.77;;;1.70;99.90;;;;;;4973489;28;20134;-71
2022/01/09 05:41:28;;;;;;;8.27;4.20;;;1.80;99.90;;;;;;4973828;28;20061;-71
2022/01/09 05:43:55;;;;;;;8.13;4.43;;;1.80;99.90;;;;;;4973650;28;20086;-71
2022/01/09 05:46:23;;;;;;;8.60;4.23;;;1.80;99.90;;;;;;4973527;28;20589;-71
2022/01/09 05:48:50;;;;;;;9.10;4.43;;;1.90;99.90;;;;;;4972753;28;20146;-71
2022/01/09 05:51:17;;;;;;;8.97;4.63;;;1.90;99.90;;;;;;4973382;28;20594;-71
2022/01/09 05:53:44;;;;;;;8.70;4.33;;;1.90;99.90;;;;;;4973570;28;20055;-71
2022/01/09 05:56:11;;;;;;;8.37;4.63;;;1.90;99.90;;;;;;4973384;28;20134;-71
2022/01/09 05:58:39;;;;;;;7.30;4.10;;;2.00;99.90;;;;;;4973199;28;20134;-71
2022/01/09 06:01:07;;;;;;;11.73;4.70;;;2.00;99.90;;;;;;4973176;28;20055;-71
2022/01/09 06:03:36;;;;;;;12.07;5.53;;;2.00;99.90;;;;;;4972987;28;20419;-70
2022/01/09 06:06:05;;;;;;;10.10;4.67;;;2.00;99.90;;;;;;4973262;28;20511;-70
2022/01/09 06:08:31;;;;;;;9.50;4.47;;;2.10;99.90;;;;;;4973131;28;20125;-71
2022/01/09 06:10:58;;;;;;;10.63;4.33;;;2.10;99.90;;;;;;4973200;28;20133;-71
2022/01/09 06:13:25;;;;;;;8.73;4.30;;;2.10;99.90;;;;;;4973073;28;20054;-71
2022/01/09 06:15:52;;;;;;;9.83;4.30;;;2.10;99.90;;;;;;4973090;28;20137;-70
2022/01/09 06:18:20;;;;;;;9.73;4.67;;;2.10;99.90;;;;;;4973086;28;20137;-70
2022/01/09 06:20:50;;;;;;;8.53;3.83;;;2.20;99.90;;;;;;4973001;28;20054;-71
2022/01/09 06:23:20;;;;;;;11.33;4.73;;;2.20;99.90;;;;;;4972830;28;20051;-71
2022/01/09 06:25:47;;;;;;;9.43;4.73;;;2.20;99.90;;;;;;4973255;28;20062;-71
2022/01/09 06:28:14;;;;;;;9.10;4.77;;;2.20;99.90;;;;;;4973062;28;20142;-71
2022/01/09 06:30:42;;;;;;;10.00;4.90;;;2.20;99.90;;;;;;4972735;28;20062;-71
2022/01/09 06:33:09;;;;;;;9.03;4.23;;;2.20;99.90;;;;;;4972843;28;20125;-71
2022/01/09 06:35:36;;;;;;;8.93;4.60;;;2.20;99.90;;;;;;4972732;28;20471;-71
2022/01/09 06:38:04;;;;;;;9.73;4.87;;;2.20;99.90;;;;;;4972836;28;20137;-71
2022/01/09 06:40:32;;;;;;;8.40;4.47;;;2.30;99.90;;;;;;4972634;28;20157;-71
2022/01/09 06:42:59;;;;;;;9.20;4.43;;;2.30;99.90;;;;;;4972497;28;20054;-71
2022/01/09 06:45:27;;;;;;;10.73;5.00;;;2.40;99.90;;;;;;4972011;28;20141;-71
2022/01/09 06:47:55;;;;;;;11.50;4.70;;;2.30;99.90;;;;;;4973043;28;20058;-70
2022/01/09 06:50:23;;;;;;;9.73;4.27;;;2.30;99.90;;;;;;4972635;28;20138;-71
2022/01/09 06:52:50;;;;;;;8.93;4.70;;;2.40;99.90;;;;;;4972794;28;20464;-71
2022/01/09 06:55:18;;;;;;;8.60;4.40;;;2.40;99.90;;;;;;4972432;28;20093;-71
2022/01/09 06:57:45;;;;;;;7.47;3.63;;;2.40;99.90;;;;;;4972684;28;20077;-71
2022/01/09 07:00:17;;;;;;;6.47;3.10;;;2.50;99.90;;;;;;4974490;28;20061;-71
2022/01/09 07:02:44;;;;;;;5.27;2.47;;;2.60;99.90;;;;;;4976458;28;20578;-70
2022/01/09 07:05:11;;;;;;;4.97;2.50;;;2.60;99.90;;;;;;4976288;28;20134;-70
2022/01/09 07:07:38;;;;;;;4.93;1.70;;;2.60;99.90;;;;;;4976488;28;20126;-71
2022/01/09 07:10:07;;;;;;;4.03;1.90;;;2.70;99.90;;;;;;4976669;28;20125;-71
2022/01/09 07:12:35;;;;;;;2.53;1.33;;;2.80;99.90;;;;;;4976243;28;20511;-70
2022/01/09 07:15:02;;;;;;;3.27;1.70;;;2.70;99.90;;;;;;4976351;28;20142;-71
2022/01/09 07:17:29;;;;;;;2.63;0.93;;;2.80;99.90;;;;;;4976491;28;20126;-71
2022/01/09 07:19:56;;;;;;;2.07;0.70;;;2.80;99.90;;;;;;4976714;28;20058;-71
2022/01/09 07:22:23;;;;;;;1.77;0.80;;;3.10;99.90;;;;;;4976101;28;20047;-71
2022/01/09 07:24:50;;;;;;;2.07;0.70;;;3.00;99.90;;;;;;4976163;28;20133;-71
2022/01/09 07:27:17;;;;;;;1.23;0.70;;;3.10;99.90;;;;;;4976391;28;20134;-71
2022/01/09 07:29:45;;;;;;;1.20;0.50;;;3.00;99.90;;;;;;4976285;28;20477;-70
2022/01/09 07:32:12;;;;;;;1.30;0.50;;;3.10;99.90;;;;;;4976157;28;20137;-70
2022/01/09 07:34:39;;;;;;;0.83;0.50;;;3.10;99.90;;;;;;4975954;28;20133;-70
2022/01/09 07:37:06;;;;;;;0.53;0.40;;;3.10;99.90;;;;;;4976330;28;20046;-70
2022/01/09 07:39:33;;;;;;;1.67;0.90;;;3.10;99.90;;;;;;4975918;28;20090;-70
2022/01/09 07:42:00;;;;;;;0.77;0.60;;;3.10;99.90;;;;;;4975977;28;20574;-70
2022/01/09 07:44:28;;;;;;;0.60;0.27;;;3.00;99.90;;;;;;4975924;28;20593;-70
2022/01/09 07:46:56;;;;;;;0.40;0.30;;;3.00;99.90;;;;;;4975621;28;20051;-70
2022/01/09 07:49:23;;;;;;;0.97;0.37;;;3.00;99.90;;;;;;4975609;28;20138;-70
2022/01/09 07:51:51;;;;;;;0.20;0.20;;;2.90;99.90;;;;;;4975675;28;20050;-71
2022/01/09 07:54:18;;;;;;;0.77;0.47;;;3.00;99.90;;;;;;4975714;28;20069;-70
2022/01/09 07:56:44;;;;;;;1.60;0.27;;;2.90;99.90;;;;;;4975492;28;20058;-70
2022/01/09 07:59:11;;;;;;;0.70;0.40;;;3.00;99.90;;;;;;4975514;28;20057;-70
2022/01/09 08:01:38;;;;;;;2.57;0.47;;;2.90;99.90;;;;;;4975569;28;20141;-71
2022/01/09 08:04:07;;;;;;;1.27;0.20;;;2.90;99.90;;;;;;4975428;28;20483;-71
2022/01/09 08:06:34;;;;;;;0.27;0.20;;;2.90;99.90;;;;;;4975330;28;20046;-70
2022/01/09 08:09:01;;;;;;;0.33;0.33;;;3.00;99.90;;;;;;4975547;28;20517;-71
2022/01/09 08:11:28;;;;;;;0.73;0.30;;;2.90;99.90;;;;;;4975061;28;20439;-71
2022/01/09 08:13:55;;;;;;;0.73;0.43;;;2.90;99.90;;;;;;4975374;28;20137;-70
2022/01/09 08:16:22;;;;;;;1.33;0.40;;;2.90;99.90;;;;;;4975063;28;20058;-70
2022/01/09 08:18:49;;;;;;;0.90;0.20;;;2.90;99.90;;;;;;4975353;28;20145;-70
2022/01/09 08:21:20;;;;;;;0.20;0.20;;;2.80;99.90;;;;;;4975668;28;20525;-70
2022/01/09 08:23:48;;;;;;;0.47;0.27;;;2.80;99.90;;;;;;4975869;28;20066;-70
2022/01/09 08:26:15;;;;;;;0.77;0.47;;;2.80;99.90;;;;;;4975086;28;20046;-70
2022/01/09 08:28:45;;;;;;;1.80;0.60;;;2.80;99.90;;;;;;4975229;28;20141;-70
2022/01/09 08:31:12;;;;;;;1.13;0.50;;;2.70;99.90;;;;;;4975075;28;20054;-70
2022/01/09 08:33:39;;;;;;;4.20;1.27;;;2.70;99.90;;;;;;4974930;28;20529;-70
2022/01/09 08:36:06;;;;;;;4.47;1.00;;;2.70;99.90;;;;;;4974799;28;20142;-70
2022/01/09 08:38:34;;;;;;;2.97;1.00;;;2.60;99.90;;;;;;4974831;28;20114;-70
2022/01/09 08:41:01;;;;;;;2.60;0.80;;;2.70;99.90;;;;;;4974906;28;20061;-70
2022/01/09 08:43:29;;;;;;;2.13;0.87;;;2.60;99.90;;;;;;4974661;28;20073;-71
2022/01/09 08:45:56;;;;;;;1.73;0.63;;;2.60;99.90;;;;;;4974719;28;20239;-70
2022/01/09 08:48:23;;;;;;;2.13;0.70;;;2.60;99.90;;;;;;4975032;28;20133;-70
2022/01/09 08:50:50;;;;;;;3.70;0.80;;;2.60;99.90;;;;;;4974775;28;20082;-70
2022/01/09 08:53:17;;;;;;;3.60;1.00;;;2.60;99.90;;;;;;4974688;28;20090;-70
2022/01/09 08:55:45;;;;;;;2.83;0.93;;;2.60;99.90;;;;;;4975017;28;20133;-70
2022/01/09 08:58:12;;;;;;;3.57;0.83;;;2.60;99.90;;;;;;4974897;28;20090;-71
2022/01/09 09:00:39;;;;;;;3.47;0.60;;;2.60;99.90;;;;;;4974684;28;20141;-71
2022/01/09 09:03:06;;;;;;;1.60;0.73;;;2.60;99.90;;;;;;4975037;28;20055;-70
2022/01/09 09:05:33;;;;;;;6.37;0.90;;;2.60;99.90;;;;;;4974703;28;20137;-70
2022/01/09 09:08:00;;;;;;;1.43;0.77;;;2.70;99.90;;;;;;4974839;28;20487;-70
2022/01/09 09:10:27;;;;;;;3.43;1.00;;;2.70;99.90;;;;;;4974496;28;20541;-70
2022/01/09 09:12:55;;;;;;;3.10;1.10;;;2.70;99.90;;;;;;4975316;28;20137;-71
2022/01/09 09:15:22;;;;;;;2.77;0.67;;;2.70;99.90;;;;;;4975583;28;20055;-70
2022/01/09 09:17:49;;;;;;;2.97;1.10;;;2.70;99.90;;;;;;4974609;28;20141;-70
2022/01/09 09:20:16;;;;;;;5.03;1.10;;;2.80;99.90;;;;;;4974500;28;20051;-70
2022/01/09 09:22:43;;;;;;;4.00;1.10;;;2.70;99.90;;;;;;4973796;28;20054;-70
2022/01/09 09:25:11;;;;;;;6.33;1.40;;;2.70;99.90;;;;;;4973917;28;20142;-70
2022/01/09 09:27:38;;;;;;;4.10;1.83;;;2.60;99.90;;;;;;4974561;28;20062;-70
2022/01/09 09:30:08;;;;;;;4.67;1.97;;;2.80;99.90;;;;;;4974283;28;20141;-71
2022/01/09 09:32:35;;;;;;;4.63;1.33;;;2.70;99.90;;;;;;4974083;28;20133;-70
2022/01/09 09:35:03;;;;;;;5.33;1.33;;;2.80;99.90;;;;;;4974054;28;20134;-70
2022/01/09 09:37:30;;;;;;;3.33;1.07;;;2.80;99.90;;;;;;4974349;28;20157;-70
2022/01/09 09:39:57;;;;;;;7.33;1.37;;;2.90;99.90;;;;;;4974049;28;20163;-70
2022/01/09 09:42:24;;;;;;;2.40;0.93;;;2.90;99.90;;;;;;5063534;23;20362;-67
2022/01/09 09:44:52;;;;;;;5.37;1.10;;;2.80;99.90;;;;;;4954934;29;20470;-67
2022/01/09 09:47:22;;;;;;;7.13;1.23;;;2.90;99.90;;;;;;4954563;29;20134;-67
2022/01/09 09:49:49;;;;;;;3.87;1.40;;;2.80;99.90;;;;;;4955168;29;20166;-67
2022/01/09 09:52:18;;;;;;;2.13;0.87;;;2.80;99.90;;;;;;4954822;28;20101;-67
2022/01/09 09:54:46;;;;;;;3.17;1.30;;;2.90;99.90;;;;;;4954336;29;20102;-67
2022/01/09 09:57:13;;;;;;;3.83;1.13;;;2.80;99.90;;;;;;4954891;29;20177;-67
2022/01/09 09:59:40;;;;;;;2.40;0.90;;;2.80;99.90;;;;;;4954793;29;20476;-67
2022/01/09 10:02:12;;;;;;;4.53;1.33;;;2.80;99.90;;;;;;4954355;28;20078;-67
2022/01/09 10:04:58;;;;;;;5.33;2.47;;;2.80;99.90;;;;;;4954521;29;20083;-67
2022/01/09 10:07:25;;;;;;;3.70;1.27;;;2.70;99.90;;;;;;4954603;29;20143;-68
2022/01/09 10:09:54;;;;;;;7.13;1.83;;;2.70;99.90;;;;;;4954294;29;20098;-66
2022/01/09 10:12:26;;;;;;;5.30;1.43;;;2.80;99.90;;;;;;4954453;28;20055;-64
2022/01/09 10:14:57;;;;;;;5.57;1.47;;;2.80;99.90;;;;;;4954977;29;20090;-64
2022/01/09 10:17:25;;;;;;;3.50;1.23;;;2.80;99.90;;;;;;4954549;29;20530;-65
2022/01/09 10:19:56;;;;;;;6.23;1.77;;;2.80;99.90;;;;;;4954424;29;20093;-65
2022/01/09 10:22:27;;;;;;;4.00;1.50;;;2.80;99.90;;;;;;4954380;28;20055;-65
2022/01/09 10:24:55;;;;;;;5.93;1.83;;;2.80;99.90;;;;;;4954609;29;20134;-66
2022/01/09 10:27:31;;;;;;;4.70;1.87;;;2.90;99.90;;;;;;4954395;29;20051;-65
2022/01/09 10:29:58;;;;;;;4.97;1.47;;;2.90;99.90;;;;;;4954190;29;20105;-65
2022/01/09 10:32:30;;;;;;;3.90;1.40;;;2.90;99.90;;;;;;4954215;28;20114;-67
2022/01/09 10:35:11;;;;;;;9.03;1.83;;;2.90;99.90;;;;;;4954238;28;20061;-68
2022/01/09 10:37:40;;;;;;;9.17;2.17;;;2.80;99.90;;;;;;4954184;29;20147;-67
2022/01/09 10:40:09;;;;;;;9.93;2.10;;;2.90;99.90;;;;;;4954145;29;20062;-69
2022/01/09 10:42:39;;;;;;;4.77;1.80;;;2.90;99.90;;;;;;4952995;28;20077;-68
2022/01/09 10:45:20;;;;;;;9.43;1.90;;;2.90;99.90;;;;;;4953902;29;20101;-68
2022/01/09 10:47:48;;;;;;;3.17;1.47;;;2.90;99.90;;;;;;4954007;29;20137;-70
2022/01/09 10:50:28;;;;;;;3.77;1.30;;;2.90;99.90;;;;;;4953901;29;20053;-68
2022/01/09 10:53:18;;;;;;;4.97;1.77;;;2.90;99.90;;;;;;4954156;28;20428;-68
2022/01/09 10:55:47;;;;;;;4.03;1.13;;;2.90;99.90;;;;;;4954349;29;20420;-68
2022/01/09 10:58:19;;;;;;;4.03;1.60;;;3.00;99.90;;;;;;4954244;29;20051;-68
2022/01/09 11:00:46;;;;;;;4.63;1.50;;;2.90;99.90;;;;;;4953611;29;20123;-67
2022/01/09 11:03:13;;;;;;;4.67;1.60;;;2.90;99.90;;;;;;4954218;28;20067;-67
2022/01/09 11:05:42;;;;;;;7.23;1.80;;;2.90;99.90;;;;;;4953577;29;20138;-67
2022/01/09 11:08:09;;;;;;;3.03;0.93;;;2.90;99.90;;;;;;4953872;29;20081;-67
2022/01/09 11:10:37;;;;;;;5.47;1.30;;;2.90;99.90;;;;;;4953506;29;20134;-66
2022/01/09 11:13:05;;;;;;;2.37;1.20;;;2.90;99.90;;;;;;4953370;28;20055;-67
2022/01/09 11:15:40;;;;;;;2.33;0.83;;;2.90;99.90;;;;;;4953439;29;20078;-66
2022/01/09 11:18:09;;;;;;;4.73;1.13;;;2.90;99.90;;;;;;4953467;29;20059;-67
2022/01/09 11:20:36;;;;;;;1.73;0.70;;;2.90;99.90;;;;;;4953517;29;20055;-66
2022/01/09 11:23:05;;;;;;;5.73;1.17;;;2.90;99.90;;;;;;4953620;28;20575;-67
2022/01/09 11:25:37;;;;;;;4.23;1.47;;;2.90;99.90;;;;;;4953705;29;20085;-67
2022/01/09 11:28:12;;;;;;;3.70;1.00;;;2.90;99.90;;;;;;4953749;29;20082;-67
2022/01/09 11:30:57;;;;;;;5.53;1.40;;;2.90;99.90;;;;;;4953693;29;20047;-65
2022/01/09 11:33:43;;;;;;;3.30;1.10;;;2.90;99.90;;;;;;4953565;28;20051;-66
2022/01/09 11:36:17;;;;;;;4.57;1.30;;;2.90;99.90;;;;;;4954301;29;20061;-66
2022/01/09 11:38:53;;;;;;;4.60;0.90;;;2.90;99.90;;;;;;4953869;29;20059;-67
2022/01/09 11:41:21;;;;;;;;;;;2.90;99.90;;;;;;4953667;28;20051;-70
2022/01/09 11:43:53;;;;;;;1.40;0.47;;;2.90;99.90;;;;;;4953125;29;19923;-66
2022/01/09 11:46:20;;;;;;;4.20;1.10;;;2.90;99.90;;;;;;4953616;28;20081;-67
2022/01/09 11:49:01;;;;;;;4.60;1.30;;;3.00;99.90;;;;;;4956703;29;20141;-66
2022/01/09 11:51:29;;;;;;;9.87;1.50;;;2.90;99.90;;;;;;4956782;28;20051;-68
2022/01/09 11:54:17;;;;;;;4.07;1.63;;;2.90;99.90;;;;;;4956801;29;20051;-67
2022/01/09 11:57:06;;;;;;;7.60;1.60;;;3.00;99.90;;;;;;4950978;29;20059;-68
2022/01/09 11:59:34;;;;;;;3.83;1.37;;;3.00;99.90;;;;;;4957172;29;20055;-67
2022/01/09 12:02:03;;;;;;;4.73;1.50;;;2.90;99.90;;;;;;4958556;28;20138;-68
2022/01/09 12:04:53;;;;;;;6.80;1.93;;;2.90;99.90;;;;;;4949722;29;20055;-66
2022/01/09 12:08:08;;;;;;;5.97;2.17;;;2.90;99.90;;;;;;4938110;29;20060;-67
2022/01/09 12:10:52;;;;;;;6.13;2.50;;;2.80;99.90;;;;;;4938339;29;20055;-67
2022/01/09 12:13:41;;;;;;;3.93;1.37;;;2.80;99.90;;;;;;4937358;29;20051;-67
2022/01/09 12:16:09;;;;;;;5.93;1.80;;;2.90;99.90;;;;;;4937683;29;20531;-67
2022/01/09 12:18:43;;;;;;;5.60;1.60;;;2.90;99.90;;;;;;4936882;29;20568;-66
2022/01/09 12:21:31;;;;;;;3.53;1.50;;;2.90;99.90;;;;;;4936983;29;20151;-65
2022/01/09 12:24:31;;;;;;;5.37;1.37;;;3.00;99.90;;;;;;4936990;29;20508;-66
2022/01/09 12:27:00;;;;;;;4.43;1.90;;;3.00;99.90;;;;;;4937106;29;20135;-66
2022/01/09 12:29:46;;;;;;;10.57;2.43;;;3.10;99.90;;;;;;4936758;29;20051;-66
2022/01/09 12:32:38;;;;;;;10.70;2.38;;;3.10;99.90;;;;;;4937338;29;20154;-65
2022/01/09 12:35:16;;;;;;;5.83;2.07;;;3.10;99.90;;;;;;4937659;29;20056;-66
2022/01/09 12:37:46;;;;;;;3.43;1.70;;;3.10;99.90;;;;;;4937405;29;20477;-66
2022/01/09 12:40:16;;;;;;;9.83;2.10;;;3.20;99.90;;;;;;4937223;29;20107;-66
2022/01/09 12:42:47;;;;;;;5.73;2.60;;;3.20;99.90;;;;;;4936988;29;20056;-66
2022/01/09 12:45:19;;;;;;;10.10;3.00;;;3.20;99.90;;;;;;4937007;29;20477;-68
2022/01/09 12:47:46;;;;;;;10.07;2.30;;;3.30;99.90;;;;;;4936354;29;20130;-67
2022/01/09 12:50:13;;;;;;;12.37;2.80;;;3.30;99.90;;;;;;4936482;29;20048;-68
2022/01/09 12:52:40;;;;;;;6.73;2.30;;;3.30;99.90;;;;;;4936352;29;20142;-67
2022/01/09 12:55:09;;;;;;;6.53;2.37;;;3.30;99.90;;;;;;4936146;29;20133;-68
2022/01/09 12:57:52;;;;;;;11.70;2.37;;;3.30;99.90;;;;;;4936365;29;20056;-67
2022/01/09 13:00:26;;;;;;;5.80;2.17;;;3.40;99.90;;;;;;4936349;29;20135;-66
2022/01/09 13:02:54;;;;;;;9.13;2.37;;;3.50;99.90;;;;;;4936234;29;20057;-66
2022/01/09 13:05:24;;;;;;;15.13;3.07;;;3.50;99.90;;;;;;4936325;29;20111;-66